createdAt,value
2022-11-17T00:01:54.223Z,93499.47
2022-11-17T00:04:21.332Z,93499.66
2022-11-17T00:06:48.131Z,93499.50
2022-11-17T00:09:17.413Z,93496.31
2022-11-17T00:12:05.538Z,93495.41
2022-11-17T00:14:33.775Z,93491.00
2022-11-17T00:17:01.781Z,93498.03
2022-11-17T00:19:47.047Z,93497.41
2022-11-17T00:22:13.669Z,93491.81
2022-11-17T00:24:40.253Z,93485.28
2022-11-17T00:27:07.017Z,93485.41
2022-11-17T00:29:37.360Z,93484.84
2022-11-17T00:32:25.017Z,93487.13
2022-11-17T00:34:51.570Z,93486.38
2022-11-17T00:37:18.383Z,93488.91
2022-11-17T00:39:44.944Z,93482.88
2022-11-17T00:42:11.522Z,93480.72
2022-11-17T00:44:38.064Z,93488.47
2022-11-17T00:47:04.707Z,93475.44
2022-11-17T00:49:31.254Z,93481.94
2022-11-17T00:51:57.905Z,93483.69
2022-11-17T00:54:24.577Z,93470.66
2022-11-17T00:56:51.450Z,93485.09
2022-11-17T00:59:18.080Z,93478.75
2022-11-17T01:01:44.893Z,93476.50
2022-11-17T01:04:13.308Z,93481.50
2022-11-17T01:06:42.799Z,93483.75
2022-11-17T01:09:15.502Z,93487.75
2022-11-17T01:11:43.027Z,93480.56
2022-11-17T01:14:18.577Z,93482.75
2022-11-17T01:16:45.556Z,93494.50
2022-11-17T01:19:13.935Z,93493.06
2022-11-17T01:21:40.603Z,93489.22
2022-11-17T01:24:07.500Z,93480.91
2022-11-17T01:26:36.907Z,93477.13
2022-11-17T01:29:04.869Z,93482.00
2022-11-17T01:31:34.081Z,93490.38
2022-11-17T01:34:00.959Z,93473.03
2022-11-17T01:36:57.048Z,93467.34
2022-11-17T01:39:28.870Z,93459.25
2022-11-17T01:41:56.014Z,93463.94
2022-11-17T01:44:59.777Z,93472.03
2022-11-17T01:47:26.281Z,93477.91
2022-11-17T01:50:01.458Z,93470.00
2022-11-17T01:52:29.929Z,93454.25
2022-11-17T01:54:58.602Z,93453.66
2022-11-17T01:57:32.648Z,93440.78
2022-11-17T02:00:07.243Z,93431.84
2022-11-17T02:02:35.743Z,93426.16
2022-11-17T02:05:06.465Z,93417.56
2022-11-17T02:07:37.763Z,93413.91
2022-11-17T02:10:05.577Z,93407.53
2022-11-17T02:12:33.721Z,93398.09
2022-11-17T02:15:01.543Z,93396.94
2022-11-17T02:17:39.501Z,93394.03
2022-11-17T02:20:09.175Z,93387.59
2022-11-17T02:23:12.884Z,93385.94
2022-11-17T02:26:33.745Z,93390.91
2022-11-17T02:29:11.995Z,93394.69
2022-11-17T02:31:47.559Z,93402.03
2022-11-17T02:34:38.450Z,93400.59
2022-11-17T02:37:20.349Z,93396.78
2022-11-17T02:39:52.909Z,93402.41
2022-11-17T02:43:00.719Z,93398.09
2022-11-17T02:45:42.101Z,93394.16
2022-11-17T02:48:16.164Z,93390.72
2022-11-17T02:50:46.073Z,93384.22
2022-11-17T02:53:14.230Z,93382.31
2022-11-17T02:55:40.851Z,93376.13
2022-11-17T02:58:12.000Z,93371.47
2022-11-17T03:00:53.312Z,93374.34
2022-11-17T03:03:36.702Z,93361.56
2022-11-17T03:06:15.238Z,93359.47
2022-11-17T03:09:17.804Z,93355.78
2022-11-17T03:11:56.769Z,93349.56
2022-11-17T03:14:26.390Z,93344.78
2022-11-17T03:17:05.595Z,93340.47
2022-11-17T03:19:44.071Z,93345.28
2022-11-17T03:22:16.532Z,93335.84
2022-11-17T03:24:49.412Z,93330.75
2022-11-17T03:27:15.956Z,93327.41
2022-11-17T03:29:46.990Z,93332.84
2022-11-17T03:32:15.797Z,93330.78
2022-11-17T03:34:49.675Z,93332.91
2022-11-17T03:37:19.353Z,93329.53
2022-11-17T03:40:01.925Z,93327.31
2022-11-17T03:42:31.785Z,93321.13
2022-11-17T03:45:19.342Z,93314.25
2022-11-17T03:47:48.989Z,93305.81
2022-11-17T03:50:21.608Z,93300.53
2022-11-17T03:52:52.067Z,93306.59
2022-11-17T03:55:19.220Z,93291.75
2022-11-17T03:58:04.520Z,93283.31
2022-11-17T04:00:33.657Z,93296.69
2022-11-17T04:03:00.311Z,93292.88
2022-11-17T04:05:27.354Z,93295.28
2022-11-17T04:07:53.891Z,93288.13
2022-11-17T04:10:22.564Z,93301.94
2022-11-17T04:13:08.180Z,93294.88
2022-11-17T04:15:53.566Z,93282.78
2022-11-17T04:18:21.750Z,93289.38
2022-11-17T04:20:56.252Z,93293.34
2022-11-17T04:23:24.231Z,93284.25
2022-11-17T04:26:11.723Z,93272.44
2022-11-17T04:28:42.982Z,93277.69
2022-11-17T04:31:19.678Z,93271.78
2022-11-17T04:33:51.367Z,93261.41
2022-11-17T04:36:19.002Z,93259.97
2022-11-17T04:38:48.174Z,93255.00
2022-11-17T04:41:34.802Z,93261.38
2022-11-17T04:44:02.477Z,93269.84
2022-11-17T04:46:32.043Z,93268.41
2022-11-17T04:48:59.186Z,93278.16
2022-11-17T04:51:26.373Z,93290.47
2022-11-17T04:53:53.632Z,93279.31
2022-11-17T04:56:21.737Z,93287.63
2022-11-17T04:58:49.093Z,93292.91
2022-11-17T05:01:17.507Z,93287.47
2022-11-17T05:04:01.568Z,93286.19
2022-11-17T05:06:29.588Z,93284.59
2022-11-17T05:08:56.751Z,93300.91
2022-11-17T05:11:47.003Z,93307.94
2022-11-17T05:14:16.805Z,93340.56
2022-11-17T05:17:08.718Z,93341.03
2022-11-17T05:19:41.228Z,93358.59
2022-11-17T05:22:27.584Z,93357.19
2022-11-17T05:24:54.747Z,93369.78
2022-11-17T05:27:22.729Z,93357.19
2022-11-17T05:29:49.573Z,93351.28
2022-11-17T05:32:16.451Z,93335.25
2022-11-17T05:34:43.089Z,93336.72
2022-11-17T05:37:09.654Z,93342.81
2022-11-17T05:39:36.287Z,93352.88
2022-11-17T05:42:03.367Z,93361.66
2022-11-17T05:44:30.003Z,93353.47
2022-11-17T05:46:56.625Z,93351.91
2022-11-17T05:49:24.053Z,93348.69
2022-11-17T05:51:52.890Z,93348.56
2022-11-17T05:54:20.328Z,93347.44
2022-11-17T05:56:51.335Z,93362.78
2022-11-17T05:59:31.202Z,93346.97
2022-11-17T06:02:06.978Z,93353.19
2022-11-17T06:04:34.627Z,93352.22
2022-11-17T06:07:02.442Z,93334.47
2022-11-17T06:09:33.729Z,93341.34
2022-11-17T06:12:05.490Z,93330.00
2022-11-17T06:14:33.046Z,93323.94
2022-11-17T06:17:04.126Z,93327.59
2022-11-17T06:19:41.025Z,93315.63
2022-11-17T06:22:12.633Z,93328.41
2022-11-17T06:24:41.901Z,93335.91
2022-11-17T06:27:10.285Z,93340.88
2022-11-17T06:29:40.942Z,93339.28
2022-11-17T06:32:11.025Z,93325.38
2022-11-17T06:34:37.791Z,93308.72
2022-11-17T06:37:04.355Z,93299.31
2022-11-17T06:39:30.861Z,93306.50
2022-11-17T06:41:57.415Z,93314.47
2022-11-17T06:44:23.957Z,93323.78
2022-11-17T06:46:50.546Z,93325.06
2022-11-17T06:49:17.433Z,93308.56
2022-11-17T06:51:45.620Z,93309.84
2022-11-17T06:54:14.525Z,93297.53
2022-11-17T06:56:41.912Z,93315.44
2022-11-17T06:59:08.534Z,93317.34
2022-11-17T07:01:35.308Z,93332.06
2022-11-17T07:04:01.902Z,93326.00
2022-11-17T07:06:28.677Z,93323.75
2022-11-17T07:08:55.299Z,93328.56
2022-11-17T07:11:21.915Z,93335.44
2022-11-17T07:13:48.510Z,93358.94
2022-11-17T07:16:22.872Z,93358.47
2022-11-17T07:18:50.476Z,93365.97
2022-11-17T07:21:18.046Z,93361.31
2022-11-17T07:23:45.790Z,93364.84
2022-11-17T07:26:12.764Z,93364.38
2022-11-17T07:28:39.550Z,93354.28
2022-11-17T07:31:08.428Z,93348.88
2022-11-17T07:33:35.539Z,93353.34
2022-11-17T07:36:07.640Z,93351.38
2022-11-17T07:38:35.692Z,93358.75
2022-11-17T07:41:04.161Z,93349.47
2022-11-17T07:43:30.865Z,93358.75
2022-11-17T07:45:57.550Z,93354.75
2022-11-17T07:48:24.440Z,93358.75
2022-11-17T07:50:51.140Z,93366.44
2022-11-17T07:53:17.836Z,93376.34
2022-11-17T07:55:44.748Z,93384.66
2022-11-17T07:58:11.568Z,93386.59
2022-11-17T08:00:38.284Z,93397.94
2022-11-17T08:03:05.436Z,93401.94
2022-11-17T08:05:41.800Z,93417.78
2022-11-17T08:08:10.234Z,93431.09
2022-11-17T08:10:37.069Z,93429.16
2022-11-17T08:13:04.194Z,93430.28
2022-11-17T08:15:31.184Z,93450.06
2022-11-17T08:18:00.177Z,93435.22
2022-11-17T08:20:29.256Z,93430.44
2022-11-17T08:22:56.693Z,93414.09
2022-11-17T08:25:25.640Z,93410.41
2022-11-17T08:27:58.922Z,93402.69
2022-11-17T08:30:26.535Z,93398.19
2022-11-17T08:32:54.452Z,93404.31
2022-11-17T08:35:24.003Z,93395.31
2022-11-17T08:37:50.962Z,93396.09
2022-11-17T08:40:18.303Z,93399.09
2022-11-17T08:42:45.956Z,93358.03
2022-11-17T08:45:13.918Z,93362.72
2022-11-17T08:47:40.833Z,93361.19
2022-11-17T08:50:08.371Z,93356.03
2022-11-17T08:52:35.202Z,93346.38
2022-11-17T08:55:02.643Z,93344.91
2022-11-17T08:57:31.519Z,93354.78
2022-11-17T08:59:58.707Z,93360.88
2022-11-17T09:02:26.545Z,93372.09
2022-11-17T09:04:53.226Z,93362.59
2022-11-17T09:07:21.384Z,93351.94
2022-11-17T09:09:48.604Z,93353.72
2022-11-17T09:12:15.932Z,93361.88
2022-11-17T09:14:42.507Z,93354.88
2022-11-17T09:17:09.146Z,93353.31
2022-11-17T09:19:35.747Z,93358.53
2022-11-17T09:22:02.323Z,93358.41
2022-11-17T09:24:28.915Z,93357.53
2022-11-17T09:26:57.444Z,93348.97
2022-11-17T09:29:24.561Z,93350.81
2022-11-17T09:31:51.261Z,93347.16
2022-11-17T09:34:18.072Z,93349.75
2022-11-17T09:36:44.762Z,93357.16
2022-11-17T09:39:11.423Z,93350.69
2022-11-17T09:41:44.164Z,93360.66
2022-11-17T09:44:32.453Z,93376.22
2022-11-17T09:47:09.525Z,93374.25
2022-11-17T09:50:05.865Z,93375.25
2022-11-17T09:52:37.014Z,93370.63
2022-11-17T09:55:22.587Z,93383.44
2022-11-17T09:57:58.127Z,93377.63
2022-11-17T10:00:25.463Z,93383.75
2022-11-17T10:02:54.110Z,93381.72
2022-11-17T10:05:35.201Z,93380.16
2022-11-17T10:08:13.071Z,93370.66
2022-11-17T10:10:44.897Z,93364.25
2022-11-17T10:13:33.496Z,93368.97
2022-11-17T10:16:04.185Z,93365.38
2022-11-17T10:18:38.072Z,93366.34
2022-11-17T10:21:06.801Z,93364.16
2022-11-17T10:23:46.830Z,93372.06
2022-11-17T10:26:15.683Z,93371.00
2022-11-17T10:28:42.928Z,93373.41
2022-11-17T10:31:18.135Z,93378.97
2022-11-17T10:33:50.491Z,93380.34
2022-11-17T10:36:23.667Z,93382.50
2022-11-17T10:38:55.447Z,93388.59
2022-11-17T10:41:25.033Z,93391.50
2022-11-17T10:44:03.317Z,93390.09
2022-11-17T10:46:38.370Z,93377.78
2022-11-17T10:49:24.674Z,93377.72
2022-11-17T10:52:14.317Z,93380.63
2022-11-17T10:54:41.244Z,93375.25
2022-11-17T10:57:22.045Z,93391.09
2022-11-17T10:59:56.853Z,93372.56
2022-11-17T11:02:30.433Z,93378.25
2022-11-17T11:05:19.034Z,93380.72
2022-11-17T11:07:45.793Z,93373.75
2022-11-17T11:10:33.370Z,93381.31
2022-11-17T11:13:19.739Z,93379.38
2022-11-17T11:15:47.353Z,93378.59
2022-11-17T11:18:16.343Z,93395.53
2022-11-17T11:21:10.576Z,93396.53
2022-11-17T11:24:11.104Z,93403.72
2022-11-17T11:26:46.825Z,93403.69
2022-11-17T11:30:04.147Z,93408.47
2022-11-17T11:32:39.825Z,93400.06
2022-11-17T11:35:32.380Z,93398.81
2022-11-17T11:37:58.984Z,93401.25
2022-11-17T11:40:39.967Z,93402.44
2022-11-17T11:43:27.489Z,93398.22
2022-11-17T11:46:04.991Z,93397.44
2022-11-17T11:48:35.609Z,93397.91
2022-11-17T11:51:09.414Z,93390.94
2022-11-17T11:53:48.073Z,93390.34
2022-11-17T11:56:37.441Z,93391.97
2022-11-17T11:59:24.218Z,93388.16
2022-11-17T12:02:02.229Z,93391.09
2022-11-17T12:04:35.792Z,93383.16
2022-11-17T12:07:11.217Z,93388.94
2022-11-17T12:09:43.572Z,93400.91
2022-11-17T12:12:16.255Z,93393.75
2022-11-17T12:15:29.405Z,93387.56
2022-11-17T12:17:59.371Z,93389.31
2022-11-17T12:20:31.934Z,93383.19
2022-11-17T12:23:09.219Z,93368.25
2022-11-17T12:25:45.203Z,93365.25
2022-11-17T12:28:38.040Z,93374.25
2022-11-17T12:31:12.850Z,93374.81
2022-11-17T12:34:30.522Z,93371.28
2022-11-17T12:37:15.212Z,93371.47
2022-11-17T12:39:58.639Z,93379.03
2022-11-17T12:42:26.990Z,93376.47
2022-11-17T12:44:59.241Z,93383.16
2022-11-17T12:47:37.925Z,93385.00
2022-11-17T12:50:22.437Z,93382.91
2022-11-17T12:53:14.687Z,93380.19
2022-11-17T12:56:04.805Z,93371.97
2022-11-17T12:58:48.375Z,93381.97
2022-11-17T13:01:28.482Z,93377.00
2022-11-17T13:04:01.384Z,93379.44
2022-11-17T13:06:35.489Z,93380.78
2022-11-17T13:09:08.576Z,93374.59
2022-11-17T13:11:35.486Z,93373.25
2022-11-17T13:14:13.268Z,93368.22
2022-11-17T13:16:49.357Z,93376.53
2022-11-17T13:19:42.078Z,93377.84
2022-11-17T13:22:17.170Z,93367.03
2022-11-17T13:24:49.008Z,93367.81
2022-11-17T13:27:25.867Z,93367.09
2022-11-17T13:30:11.337Z,93361.78
2022-11-17T13:32:39.688Z,93366.00
2022-11-17T13:35:20.063Z,93361.34
2022-11-17T13:38:04.930Z,93358.72
2022-11-17T13:40:34.801Z,93363.75
2022-11-17T13:43:03.092Z,93371.63
2022-11-17T13:45:29.777Z,93369.50
2022-11-17T13:47:59.241Z,93368.59
2022-11-17T13:50:32.171Z,93369.00
2022-11-17T13:53:16.201Z,93368.13
2022-11-17T13:55:46.916Z,93376.91
2022-11-17T13:58:40.960Z,93376.50
2022-11-17T14:01:12.119Z,93386.66
2022-11-17T14:03:41.665Z,93387.38
2022-11-17T14:06:13.640Z,93380.47
2022-11-17T14:08:44.040Z,93379.50
2022-11-17T14:11:10.559Z,93383.28
2022-11-17T14:13:42.252Z,93376.75
2022-11-17T14:16:39.647Z,93379.78
2022-11-17T14:19:31.090Z,93378.78
2022-11-17T14:22:24.762Z,93377.78
2022-11-17T14:24:56.014Z,93377.63
2022-11-17T14:27:28.846Z,93381.41
2022-11-17T14:29:55.420Z,93380.81
2022-11-17T14:32:21.962Z,93384.91
2022-11-17T14:34:48.578Z,93386.13
2022-11-17T14:37:15.150Z,93380.91
2022-11-17T14:39:41.765Z,93387.00
2022-11-17T14:42:08.914Z,93390.75
2022-11-17T14:44:35.488Z,93387.72
2022-11-17T14:47:02.334Z,93390.97
2022-11-17T14:49:28.982Z,93389.06
2022-11-17T14:51:58.990Z,93384.91
2022-11-17T14:54:25.886Z,93376.72
2022-11-17T14:56:52.551Z,93378.06
2022-11-17T14:59:19.285Z,93368.50
2022-11-17T15:01:45.989Z,93368.66
2022-11-17T15:04:42.921Z,93366.66
2022-11-17T15:07:00.790Z,93360.75
2022-11-17T15:09:27.402Z,93361.16
2022-11-17T15:11:54.320Z,93367.00
2022-11-17T15:14:20.942Z,93358.56
2022-11-17T15:16:47.505Z,93362.25
2022-11-17T15:19:14.165Z,93353.25
2022-11-17T15:21:40.784Z,93359.06
2022-11-17T15:24:09.146Z,93362.22
2022-11-17T15:26:35.797Z,93354.94
2022-11-17T15:29:02.509Z,93357.63
2022-11-17T15:31:29.142Z,93353.34
2022-11-17T15:33:55.923Z,93354.25
2022-11-17T15:36:23.215Z,93365.19
2022-11-17T15:38:49.884Z,93350.31
2022-11-17T15:41:16.601Z,93366.50
2022-11-17T15:43:44.705Z,93359.56
2022-11-17T15:46:12.817Z,93347.59
2022-11-17T15:48:44.251Z,93355.34
2022-11-17T15:51:13.335Z,93360.34
2022-11-17T15:53:40.915Z,93362.91
2022-11-17T15:56:07.843Z,93362.41
2022-11-17T15:58:34.938Z,93352.28
2022-11-17T16:01:25.160Z,93352.84
2022-11-17T16:04:01.316Z,93361.41
2022-11-17T16:06:29.224Z,93360.16
2022-11-17T16:08:55.994Z,93367.19
2022-11-17T16:11:22.737Z,93370.03
2022-11-17T16:13:53.242Z,93370.06
2022-11-17T16:16:19.876Z,93364.81
2022-11-17T16:18:46.505Z,93364.47
2022-11-17T16:21:14.825Z,93359.06
2022-11-17T16:23:46.953Z,93360.06
2022-11-17T16:26:15.040Z,93352.78
2022-11-17T16:28:41.994Z,93355.78
2022-11-17T16:31:29.526Z,93345.59
2022-11-17T16:33:58.538Z,93345.22
2022-11-17T16:36:31.372Z,93336.63
2022-11-17T16:39:02.559Z,93336.44
2022-11-17T16:41:32.647Z,93341.16
2022-11-17T16:43:59.977Z,93341.28
2022-11-17T16:46:29.223Z,93347.00
2022-11-17T16:48:56.907Z,93341.59
2022-11-17T16:51:24.711Z,93346.72
2022-11-17T16:53:56.222Z,93339.97
2022-11-17T16:56:23.059Z,93336.03
2022-11-17T16:58:50.259Z,93334.81
2022-11-17T17:01:19.919Z,93322.31
2022-11-17T17:03:46.783Z,93326.13
2022-11-17T17:06:16.835Z,93333.88
2022-11-17T17:08:44.169Z,93336.44
2022-11-17T17:11:13.699Z,93325.28
2022-11-17T17:13:41.169Z,93340.06
2022-11-17T17:16:10.834Z,93328.63
2022-11-17T17:18:38.046Z,93330.50
2022-11-17T17:21:05.155Z,93328.63
2022-11-17T17:23:32.117Z,93336.88
2022-11-17T17:26:20.304Z,93339.63
2022-11-17T17:28:48.694Z,93331.13
2022-11-17T17:31:21.942Z,93338.72
2022-11-17T17:33:50.609Z,93337.22
2022-11-17T17:36:23.249Z,93323.81
2022-11-17T17:38:55.535Z,93330.25
2022-11-17T17:41:24.876Z,93326.53
2022-11-17T17:44:03.603Z,93322.44
2022-11-17T17:46:33.322Z,93323.50
2022-11-17T17:49:00.034Z,93321.44
2022-11-17T17:51:29.673Z,93321.38
2022-11-17T17:54:00.714Z,93318.53
2022-11-17T17:56:28.095Z,93311.97
2022-11-17T17:58:55.649Z,93322.00
2022-11-17T18:01:25.321Z,93318.78
2022-11-17T18:04:01.057Z,93321.81
2022-11-17T18:06:28.240Z,93318.84
2022-11-17T18:08:54.874Z,93321.16
2022-11-17T18:11:21.477Z,93325.56
2022-11-17T18:13:50.990Z,93327.09
2022-11-17T18:16:23.864Z,93326.53
2022-11-17T18:18:59.272Z,93323.06
2022-11-17T18:21:26.911Z,93332.50
2022-11-17T18:23:54.721Z,93332.91
2022-11-17T18:26:22.706Z,93336.69
2022-11-17T18:28:50.415Z,93339.47
2022-11-17T18:31:17.030Z,93335.94
2022-11-17T18:33:45.325Z,93343.28
2022-11-17T18:36:12.279Z,93346.34
2022-11-17T18:38:39.117Z,93351.44
2022-11-17T18:41:11.258Z,93351.66
2022-11-17T18:43:38.702Z,93348.47
2022-11-17T18:46:07.244Z,93355.03
2022-11-17T18:48:35.676Z,93353.00
2022-11-17T18:51:19.172Z,93345.06
2022-11-17T18:53:46.389Z,93343.16
2022-11-17T18:56:15.817Z,93344.66
2022-11-17T18:58:43.109Z,93334.84
2022-11-17T19:01:12.912Z,93350.56
2022-11-17T19:03:40.360Z,93345.03
2022-11-17T19:06:08.363Z,93338.00
2022-11-17T19:08:35.979Z,93348.59
2022-11-17T19:11:06.321Z,93334.81
2022-11-17T19:13:35.297Z,93335.91
2022-11-17T19:16:22.453Z,93351.44
2022-11-17T19:18:51.400Z,93341.34
2022-11-17T19:21:20.987Z,93348.53
2022-11-17T19:23:51.907Z,93348.41
2022-11-17T19:26:20.544Z,93332.19
2022-11-17T19:28:47.818Z,93339.06
2022-11-17T19:31:19.896Z,93341.00
2022-11-17T19:33:48.300Z,93351.88
2022-11-17T19:36:20.754Z,93351.53
2022-11-17T19:38:48.940Z,93347.84
2022-11-17T19:41:21.162Z,93344.16
2022-11-17T19:43:48.333Z,93347.34
2022-11-17T19:46:16.557Z,93352.47
2022-11-17T19:48:44.328Z,93347.16
2022-11-17T19:51:15.913Z,93342.84
2022-11-17T19:53:42.821Z,93343.97
2022-11-17T19:56:09.463Z,93354.41
2022-11-17T19:58:36.121Z,93363.25
2022-11-17T20:01:22.383Z,93367.97
2022-11-17T20:03:49.699Z,93367.56
2022-11-17T20:06:21.793Z,93368.75
2022-11-17T20:08:49.014Z,93366.66
2022-11-17T20:11:18.495Z,93368.13
2022-11-17T20:13:45.447Z,93366.22
2022-11-17T20:16:26.614Z,93372.53
2022-11-17T20:18:55.909Z,93375.09
2022-11-17T20:21:23.091Z,93366.78
2022-11-17T20:23:49.637Z,93363.59
2022-11-17T20:26:16.173Z,93356.72
2022-11-17T20:28:43.125Z,93355.28
2022-11-17T20:31:13.410Z,93358.28
2022-11-17T20:33:41.623Z,93357.47
2022-11-17T20:36:11.155Z,93358.63
2022-11-17T20:38:37.753Z,93362.47
2022-11-17T20:41:05.472Z,93359.63
2022-11-17T20:43:33.491Z,93367.78
2022-11-17T20:46:01.372Z,93368.25
2022-11-17T20:48:29.172Z,93372.00
2022-11-17T20:50:56.224Z,93364.78
2022-11-17T20:53:22.921Z,93376.13
2022-11-17T20:55:49.495Z,93379.16
2022-11-17T20:58:16.110Z,93381.88
2022-11-17T21:00:42.922Z,93383.94
2022-11-17T21:03:09.527Z,93390.31
2022-11-17T21:05:36.099Z,93387.88
2022-11-17T21:08:02.685Z,93383.34
2022-11-17T21:10:29.219Z,93397.59
2022-11-17T21:12:55.780Z,93392.31
2022-11-17T21:15:22.382Z,93379.69
2022-11-17T21:18:07.497Z,93385.28
2022-11-17T21:20:34.146Z,93385.44
2022-11-17T21:23:00.811Z,93401.34
2022-11-17T21:25:27.375Z,93401.16
2022-11-17T21:27:53.911Z,93411.63
2022-11-17T21:30:20.531Z,93406.50
2022-11-17T21:32:47.149Z,93409.41
2022-11-17T21:35:13.806Z,93413.56
2022-11-17T21:37:40.366Z,93418.03
2022-11-17T21:40:07.616Z,93414.19
2022-11-17T21:42:34.187Z,93419.16
2022-11-17T21:45:00.854Z,93429.88
2022-11-17T21:47:27.441Z,93438.06
2022-11-17T21:49:54.005Z,93439.47
2022-11-17T21:52:20.549Z,93448.31
2022-11-17T21:54:47.143Z,93457.56
2022-11-17T21:57:13.707Z,93465.53
2022-11-17T21:59:40.302Z,93468.38
2022-11-17T22:02:06.902Z,93471.47
2022-11-17T22:04:33.577Z,93474.66
2022-11-17T22:07:00.217Z,93491.72
2022-11-17T22:09:26.886Z,93490.63
2022-11-17T22:11:55.682Z,93491.28
2022-11-17T22:14:22.678Z,93497.50
2022-11-17T22:16:52.192Z,93503.44
2022-11-17T22:19:21.088Z,93508.97
2022-11-17T22:21:50.915Z,93510.25
2022-11-17T22:24:18.046Z,93514.59
2022-11-17T22:26:45.724Z,93518.50
2022-11-17T22:29:18.525Z,93515.06
2022-11-17T22:31:46.348Z,93524.50
2022-11-17T22:34:13.774Z,93521.19
2022-11-17T22:36:40.353Z,93512.88
2022-11-17T22:39:07.446Z,93516.31
2022-11-17T22:41:34.126Z,93523.66
2022-11-17T22:44:00.844Z,93520.44
2022-11-17T22:46:28.467Z,93506.00
2022-11-17T22:48:55.560Z,93504.47
2022-11-17T22:51:40.601Z,93501.44
2022-11-17T22:54:08.526Z,93496.97
2022-11-17T22:56:36.137Z,93492.38
2022-11-17T22:59:03.023Z,93478.34
2022-11-17T23:01:29.650Z,93485.13
2022-11-17T23:03:56.663Z,93479.25
2022-11-17T23:06:24.186Z,93486.19
2022-11-17T23:08:51.726Z,93481.53
2022-11-17T23:14:08.085Z,93478.19
2022-11-17T23:16:35.442Z,93472.72
2022-11-17T23:19:02.112Z,93480.78
2022-11-17T23:21:28.776Z,93471.25
2022-11-17T23:23:55.680Z,93467.47
2022-11-17T23:26:22.561Z,93459.94
2022-11-17T23:28:49.306Z,93464.75
2022-11-17T23:31:17.042Z,93467.78
2022-11-17T23:33:45.931Z,93460.69
2022-11-17T23:36:17.888Z,93460.09
2022-11-17T23:38:45.527Z,93450.38
2022-11-17T23:41:14.484Z,93441.53
2022-11-17T23:43:41.610Z,93440.78
2022-11-17T23:46:15.017Z,93434.66
2022-11-17T23:48:42.708Z,93436.13
2022-11-17T23:51:12.107Z,93432.91
2022-11-17T23:53:38.905Z,93437.59
2022-11-17T23:56:06.639Z,93437.41
2022-11-17T23:58:33.399Z,93439.97
